sensor_id;sensor_type;location;lat;lon;timestamp;P1;durP1;ratioP1;P2;durP2;ratioP2
21802;SDS011;18591;47.080;22.214;2022-08-21T00:00:24;8.40;;;4.72;;
21802;SDS011;18591;47.080;22.214;2022-08-21T00:02:28;11.27;;;4.30;;
21802;SDS011;18591;47.080;22.214;2022-08-21T00:04:31;9.20;;;4.55;;
21802;SDS011;18591;47.080;22.214;2022-08-21T00:06:34;9.35;;;4.63;;
21802;SDS011;18591;47.080;22.214;2022-08-21T00:08:37;12.05;;;5.63;;
21802;SDS011;18591;47.080;22.214;2022-08-21T00:10:40;9.68;;;5.25;;
21802;SDS011;18591;47.080;22.214;2022-08-21T00:12:43;13.20;;;5.95;;
21802;SDS011;18591;47.080;22.214;2022-08-21T00:14:47;7.90;;;4.82;;
21802;SDS011;18591;47.080;22.214;2022-08-21T00:16:57;11.65;;;6.43;;
21802;SDS011;18591;47.080;22.214;2022-08-21T00:19:00;12.80;;;5.38;;
21802;SDS011;18591;47.080;22.214;2022-08-21T00:21:03;15.13;;;5.82;;
21802;SDS011;18591;47.080;22.214;2022-08-21T00:23:06;10.55;;;5.55;;
21802;SDS011;18591;47.080;22.214;2022-08-21T00:25:09;11.02;;;4.80;;
21802;SDS011;18591;47.080;22.214;2022-08-21T00:27:15;9.48;;;4.78;;
21802;SDS011;18591;47.080;22.214;2022-08-21T00:29:17;9.25;;;4.88;;
21802;SDS011;18591;47.080;22.214;2022-08-21T00:31:20;13.45;;;5.18;;
21802;SDS011;18591;47.080;22.214;2022-08-21T00:33:23;7.75;;;4.25;;
21802;SDS011;18591;47.080;22.214;2022-08-21T00:35:27;11.27;;;5.07;;
21802;SDS011;18591;47.080;22.214;2022-08-21T00:37:34;9.30;;;4.57;;
21802;SDS011;18591;47.080;22.214;2022-08-21T00:39:37;5.90;;;4.55;;
21802;SDS011;18591;47.080;22.214;2022-08-21T00:41:39;9.48;;;4.35;;
21802;SDS011;18591;47.080;22.214;2022-08-21T00:43:43;10.00;;;4.82;;
21802;SDS011;18591;47.080;22.214;2022-08-21T00:45:45;6.93;;;3.95;;
21802;SDS011;18591;47.080;22.214;2022-08-21T00:47:48;10.75;;;4.53;;
21802;SDS011;18591;47.080;22.214;2022-08-21T00:49:51;11.73;;;4.53;;
21802;SDS011;18591;47.080;22.214;2022-08-21T00:51:55;10.30;;;4.25;;
21802;SDS011;18591;47.080;22.214;2022-08-21T00:54:01;9.85;;;4.80;;
21802;SDS011;18591;47.080;22.214;2022-08-21T00:56:05;7.72;;;3.75;;
21802;SDS011;18591;47.080;22.214;2022-08-21T00:58:12;9.70;;;3.88;;
21802;SDS011;18591;47.080;22.214;2022-08-21T01:00:20;8.07;;;3.92;;
21802;SDS011;18591;47.080;22.214;2022-08-21T01:02:26;8.90;;;3.67;;
21802;SDS011;18591;47.080;22.214;2022-08-21T01:04:31;11.35;;;4.65;;
21802;SDS011;18591;47.080;22.214;2022-08-21T01:06:34;7.22;;;3.67;;
21802;SDS011;18591;47.080;22.214;2022-08-21T01:08:36;9.95;;;4.13;;
21802;SDS011;18591;47.080;22.214;2022-08-21T01:10:47;6.13;;;3.88;;
21802;SDS011;18591;47.080;22.214;2022-08-21T01:12:59;6.03;;;4.45;;
21802;SDS011;18591;47.080;22.214;2022-08-21T01:15:02;12.93;;;4.85;;
21802;SDS011;18591;47.080;22.214;2022-08-21T01:17:06;12.52;;;4.65;;
21802;SDS011;18591;47.080;22.214;2022-08-21T01:19:09;12.15;;;4.63;;
21802;SDS011;18591;47.080;22.214;2022-08-21T01:21:16;8.77;;;3.90;;
21802;SDS011;18591;47.080;22.214;2022-08-21T01:23:28;6.65;;;4.18;;
21802;SDS011;18591;47.080;22.214;2022-08-21T01:25:31;10.02;;;4.95;;
21802;SDS011;18591;47.080;22.214;2022-08-21T01:27:34;9.95;;;4.18;;
21802;SDS011;18591;47.080;22.214;2022-08-21T01:31:46;18.13;;;4.97;;
21802;SDS011;18591;47.080;22.214;2022-08-21T01:33:48;13.75;;;5.30;;
21802;SDS011;18591;47.080;22.214;2022-08-21T01:35:51;12.55;;;4.28;;
21802;SDS011;18591;47.080;22.214;2022-08-21T01:37:54;5.57;;;3.90;;
21802;SDS011;18591;47.080;22.214;2022-08-21T01:39:56;10.50;;;4.60;;
21802;SDS011;18591;47.080;22.214;2022-08-21T01:41:58;9.68;;;4.80;;
21802;SDS011;18591;47.080;22.214;2022-08-21T01:44:00;8.60;;;4.03;;
21802;SDS011;18591;47.080;22.214;2022-08-21T01:46:03;6.88;;;4.32;;
21802;SDS011;18591;47.080;22.214;2022-08-21T01:48:06;8.18;;;4.38;;
21802;SDS011;18591;47.080;22.214;2022-08-21T01:50:10;8.50;;;4.57;;
21802;SDS011;18591;47.080;22.214;2022-08-21T01:52:16;9.30;;;4.82;;
21802;SDS011;18591;47.080;22.214;2022-08-21T01:54:18;8.32;;;4.45;;
21802;SDS011;18591;47.080;22.214;2022-08-21T01:56:23;8.00;;;4.10;;
21802;SDS011;18591;47.080;22.214;2022-08-21T01:58:27;5.13;;;4.15;;
21802;SDS011;18591;47.080;22.214;2022-08-21T02:00:30;6.50;;;4.63;;
21802;SDS011;18591;47.080;22.214;2022-08-21T02:02:32;6.43;;;3.97;;
21802;SDS011;18591;47.080;22.214;2022-08-21T02:04:34;12.30;;;4.95;;
21802;SDS011;18591;47.080;22.214;2022-08-21T02:06:37;13.00;;;5.55;;
21802;SDS011;18591;47.080;22.214;2022-08-21T02:08:40;11.40;;;5.25;;
21802;SDS011;18591;47.080;22.214;2022-08-21T02:10:45;7.35;;;3.90;;
21802;SDS011;18591;47.080;22.214;2022-08-21T02:12:49;8.05;;;4.53;;
21802;SDS011;18591;47.080;22.214;2022-08-21T02:14:52;8.00;;;4.95;;
21802;SDS011;18591;47.080;22.214;2022-08-21T02:16:54;10.05;;;5.68;;
21802;SDS011;18591;47.080;22.214;2022-08-21T02:19:10;8.82;;;4.97;;
21802;SDS011;18591;47.080;22.214;2022-08-21T02:21:14;10.98;;;5.22;;
21802;SDS011;18591;47.080;22.214;2022-08-21T02:23:17;8.55;;;5.03;;
21802;SDS011;18591;47.080;22.214;2022-08-21T02:25:20;10.20;;;4.38;;
21802;SDS011;18591;47.080;22.214;2022-08-21T02:27:24;8.65;;;5.07;;
21802;SDS011;18591;47.080;22.214;2022-08-21T02:29:28;10.07;;;4.82;;
21802;SDS011;18591;47.080;22.214;2022-08-21T02:31:30;10.45;;;4.40;;
21802;SDS011;18591;47.080;22.214;2022-08-21T02:33:33;11.18;;;4.85;;
21802;SDS011;18591;47.080;22.214;2022-08-21T02:35:36;8.85;;;4.40;;
21802;SDS011;18591;47.080;22.214;2022-08-21T02:37:47;10.32;;;5.20;;
21802;SDS011;18591;47.080;22.214;2022-08-21T02:39:56;12.50;;;5.20;;
21802;SDS011;18591;47.080;22.214;2022-08-21T02:41:58;7.40;;;4.43;;
21802;SDS011;18591;47.080;22.214;2022-08-21T02:44:01;8.20;;;4.57;;
21802;SDS011;18591;47.080;22.214;2022-08-21T02:46:07;14.25;;;5.93;;
21802;SDS011;18591;47.080;22.214;2022-08-21T02:48:14;13.00;;;5.63;;
21802;SDS011;18591;47.080;22.214;2022-08-21T02:50:22;11.05;;;6.20;;
21802;SDS011;18591;47.080;22.214;2022-08-21T02:52:27;7.03;;;5.38;;
21802;SDS011;18591;47.080;22.214;2022-08-21T02:54:30;8.63;;;5.07;;
21802;SDS011;18591;47.080;22.214;2022-08-21T02:56:31;10.13;;;4.78;;
21802;SDS011;18591;47.080;22.214;2022-08-21T02:58:39;12.40;;;5.00;;
21802;SDS011;18591;47.080;22.214;2022-08-21T03:00:43;9.85;;;5.43;;
21802;SDS011;18591;47.080;22.214;2022-08-21T03:02:46;12.45;;;5.78;;
21802;SDS011;18591;47.080;22.214;2022-08-21T03:04:49;5.22;;;4.35;;
21802;SDS011;18591;47.080;22.214;2022-08-21T03:06:52;12.90;;;5.43;;
21802;SDS011;18591;47.080;22.214;2022-08-21T03:08:57;11.88;;;5.13;;
21802;SDS011;18591;47.080;22.214;2022-08-21T03:10:59;8.18;;;4.45;;
21802;SDS011;18591;47.080;22.214;2022-08-21T03:13:02;8.57;;;5.60;;
21802;SDS011;18591;47.080;22.214;2022-08-21T03:15:06;13.32;;;5.57;;
21802;SDS011;18591;47.080;22.214;2022-08-21T03:17:09;9.38;;;4.40;;
21802;SDS011;18591;47.080;22.214;2022-08-21T03:19:12;11.23;;;5.25;;
21802;SDS011;18591;47.080;22.214;2022-08-21T03:21:14;8.85;;;4.50;;
21802;SDS011;18591;47.080;22.214;2022-08-21T03:23:17;8.60;;;5.47;;
21802;SDS011;18591;47.080;22.214;2022-08-21T03:25:20;12.38;;;5.55;;
21802;SDS011;18591;47.080;22.214;2022-08-21T03:27:41;12.88;;;5.65;;
21802;SDS011;18591;47.080;22.214;2022-08-21T03:29:44;9.15;;;5.45;;
21802;SDS011;18591;47.080;22.214;2022-08-21T03:31:47;12.32;;;5.30;;
21802;SDS011;18591;47.080;22.214;2022-08-21T03:33:49;14.52;;;5.43;;
21802;SDS011;18591;47.080;22.214;2022-08-21T03:36:03;12.90;;;5.85;;
21802;SDS011;18591;47.080;22.214;2022-08-21T03:38:07;12.13;;;5.28;;
21802;SDS011;18591;47.080;22.214;2022-08-21T03:40:11;13.52;;;5.05;;
21802;SDS011;18591;47.080;22.214;2022-08-21T03:42:16;13.00;;;4.88;;
21802;SDS011;18591;47.080;22.214;2022-08-21T03:44:18;8.73;;;4.72;;
21802;SDS011;18591;47.080;22.214;2022-08-21T03:46:20;11.15;;;5.40;;
21802;SDS011;18591;47.080;22.214;2022-08-21T03:48:23;17.00;;;5.80;;
21802;SDS011;18591;47.080;22.214;2022-08-21T03:50:26;9.98;;;4.68;;
21802;SDS011;18591;47.080;22.214;2022-08-21T03:52:35;11.63;;;5.22;;
21802;SDS011;18591;47.080;22.214;2022-08-21T03:54:37;10.75;;;5.47;;
21802;SDS011;18591;47.080;22.214;2022-08-21T03:56:41;14.00;;;5.13;;
21802;SDS011;18591;47.080;22.214;2022-08-21T03:58:43;7.32;;;4.60;;
21802;SDS011;18591;47.080;22.214;2022-08-21T04:00:48;9.85;;;5.18;;
21802;SDS011;18591;47.080;22.214;2022-08-21T04:02:52;13.02;;;5.45;;
21802;SDS011;18591;47.080;22.214;2022-08-21T04:04:55;7.80;;;4.90;;
21802;SDS011;18591;47.080;22.214;2022-08-21T04:06:57;13.88;;;5.35;;
21802;SDS011;18591;47.080;22.214;2022-08-21T04:09:00;9.07;;;5.03;;
21802;SDS011;18591;47.080;22.214;2022-08-21T04:11:02;10.00;;;4.70;;
21802;SDS011;18591;47.080;22.214;2022-08-21T04:13:05;11.93;;;4.85;;
21802;SDS011;18591;47.080;22.214;2022-08-21T04:15:09;12.15;;;5.07;;
21802;SDS011;18591;47.080;22.214;2022-08-21T04:17:12;10.60;;;4.72;;
21802;SDS011;18591;47.080;22.214;2022-08-21T04:19:14;9.82;;;5.30;;
21802;SDS011;18591;47.080;22.214;2022-08-21T04:21:17;7.85;;;4.78;;
21802;SDS011;18591;47.080;22.214;2022-08-21T04:23:24;9.98;;;5.28;;
21802;SDS011;18591;47.080;22.214;2022-08-21T04:28:21;11.45;;;5.10;;
21802;SDS011;18591;47.080;22.214;2022-08-21T04:30:29;8.93;;;5.07;;
21802;SDS011;18591;47.080;22.214;2022-08-21T04:32:31;10.73;;;5.05;;
21802;SDS011;18591;47.080;22.214;2022-08-21T04:34:34;10.38;;;4.60;;
21802;SDS011;18591;47.080;22.214;2022-08-21T04:36:36;13.55;;;5.13;;
21802;SDS011;18591;47.080;22.214;2022-08-21T04:38:40;9.13;;;4.65;;
21802;SDS011;18591;47.080;22.214;2022-08-21T04:40:45;9.20;;;4.82;;
21802;SDS011;18591;47.080;22.214;2022-08-21T04:42:48;9.85;;;4.97;;
21802;SDS011;18591;47.080;22.214;2022-08-21T04:44:52;13.88;;;4.45;;
21802;SDS011;18591;47.080;22.214;2022-08-21T04:46:59;9.70;;;5.20;;
21802;SDS011;18591;47.080;22.214;2022-08-21T04:49:02;7.43;;;5.00;;
21802;SDS011;18591;47.080;22.214;2022-08-21T04:58:50;7.10;;;4.47;;
21802;SDS011;18591;47.080;22.214;2022-08-21T05:01:57;8.40;;;4.93;;
21802;SDS011;18591;47.080;22.214;2022-08-21T05:15:02;10.88;;;5.50;;
21802;SDS011;18591;47.080;22.214;2022-08-21T05:19:42;15.70;;;6.45;;
21802;SDS011;18591;47.080;22.214;2022-08-21T05:21:45;8.88;;;4.65;;
21802;SDS011;18591;47.080;22.214;2022-08-21T05:23:48;11.30;;;5.13;;
21802;SDS011;18591;47.080;22.214;2022-08-21T05:25:51;12.85;;;5.20;;
21802;SDS011;18591;47.080;22.214;2022-08-21T05:27:54;9.20;;;4.88;;
21802;SDS011;18591;47.080;22.214;2022-08-21T05:30:01;10.02;;;5.35;;
21802;SDS011;18591;47.080;22.214;2022-08-21T05:32:11;8.30;;;4.97;;
21802;SDS011;18591;47.080;22.214;2022-08-21T05:34:20;9.18;;;4.57;;
21802;SDS011;18591;47.080;22.214;2022-08-21T05:36:23;7.90;;;4.53;;
21802;SDS011;18591;47.080;22.214;2022-08-21T05:38:26;9.48;;;4.97;;
21802;SDS011;18591;47.080;22.214;2022-08-21T05:40:32;7.72;;;4.60;;
21802;SDS011;18591;47.080;22.214;2022-08-21T05:42:40;12.20;;;5.47;;
21802;SDS011;18591;47.080;22.214;2022-08-21T05:44:43;9.95;;;5.13;;
21802;SDS011;18591;47.080;22.214;2022-08-21T05:46:49;9.48;;;5.15;;
21802;SDS011;18591;47.080;22.214;2022-08-21T05:48:53;11.20;;;5.45;;
21802;SDS011;18591;47.080;22.214;2022-08-21T05:51:07;8.63;;;4.53;;
21802;SDS011;18591;47.080;22.214;2022-08-21T05:53:12;9.57;;;4.97;;
21802;SDS011;18591;47.080;22.214;2022-08-21T05:55:15;7.10;;;4.55;;
21802;SDS011;18591;47.080;22.214;2022-08-21T05:57:18;10.30;;;6.07;;
21802;SDS011;18591;47.080;22.214;2022-08-21T05:59:21;10.30;;;5.85;;
21802;SDS011;18591;47.080;22.214;2022-08-21T06:01:23;11.75;;;5.53;;
21802;SDS011;18591;47.080;22.214;2022-08-21T06:03:28;11.27;;;5.40;;
21802;SDS011;18591;47.080;22.214;2022-08-21T06:05:32;9.48;;;4.75;;
21802;SDS011;18591;47.080;22.214;2022-08-21T06:10:06;9.00;;;5.18;;
21802;SDS011;18591;47.080;22.214;2022-08-21T06:12:09;8.70;;;4.78;;
21802;SDS011;18591;47.080;22.214;2022-08-21T06:14:13;9.48;;;4.45;;
21802;SDS011;18591;47.080;22.214;2022-08-21T06:16:16;12.43;;;5.43;;
21802;SDS011;18591;47.080;22.214;2022-08-21T06:18:19;9.90;;;4.53;;
21802;SDS011;18591;47.080;22.214;2022-08-21T06:20:22;10.68;;;4.70;;
21802;SDS011;18591;47.080;22.214;2022-08-21T06:22:25;9.20;;;4.95;;
21802;SDS011;18591;47.080;22.214;2022-08-21T06:24:28;9.38;;;5.28;;
21802;SDS011;18591;47.080;22.214;2022-08-21T06:26:30;7.20;;;4.18;;
21802;SDS011;18591;47.080;22.214;2022-08-21T06:28:33;8.40;;;4.75;;
21802;SDS011;18591;47.080;22.214;2022-08-21T06:30:38;13.82;;;4.70;;
21802;SDS011;18591;47.080;22.214;2022-08-21T06:32:41;8.68;;;5.05;;
21802;SDS011;18591;47.080;22.214;2022-08-21T06:34:43;8.38;;;4.65;;
21802;SDS011;18591;47.080;22.214;2022-08-21T06:36:46;8.85;;;4.72;;
21802;SDS011;18591;47.080;22.214;2022-08-21T06:38:48;8.50;;;4.40;;
21802;SDS011;18591;47.080;22.214;2022-08-21T06:40:52;12.00;;;4.78;;
21802;SDS011;18591;47.080;22.214;2022-08-21T06:42:55;10.18;;;5.07;;
21802;SDS011;18591;47.080;22.214;2022-08-21T06:45:01;13.82;;;5.95;;
21802;SDS011;18591;47.080;22.214;2022-08-21T06:47:04;7.93;;;5.45;;
21802;SDS011;18591;47.080;22.214;2022-08-21T06:49:06;9.73;;;5.35;;
21802;SDS011;18591;47.080;22.214;2022-08-21T06:51:18;9.50;;;5.25;;
21802;SDS011;18591;47.080;22.214;2022-08-21T06:53:21;10.32;;;5.45;;
21802;SDS011;18591;47.080;22.214;2022-08-21T06:55:24;7.85;;;5.03;;
21802;SDS011;18591;47.080;22.214;2022-08-21T06:57:29;8.50;;;5.15;;
21802;SDS011;18591;47.080;22.214;2022-08-21T06:59:32;8.57;;;5.20;;
21802;SDS011;18591;47.080;22.214;2022-08-21T07:01:35;7.57;;;4.78;;
21802;SDS011;18591;47.080;22.214;2022-08-21T07:03:39;12.02;;;5.15;;
21802;SDS011;18591;47.080;22.214;2022-08-21T07:05:43;7.45;;;5.20;;
21802;SDS011;18591;47.080;22.214;2022-08-21T07:07:46;9.10;;;4.82;;
21802;SDS011;18591;47.080;22.214;2022-08-21T07:09:48;8.10;;;4.68;;
21802;SDS011;18591;47.080;22.214;2022-08-21T07:11:52;10.25;;;4.05;;
21802;SDS011;18591;47.080;22.214;2022-08-21T07:13:56;7.38;;;4.90;;
21802;SDS011;18591;47.080;22.214;2022-08-21T07:16:00;10.15;;;4.75;;
21802;SDS011;18591;47.080;22.214;2022-08-21T07:18:05;7.72;;;4.10;;
21802;SDS011;18591;47.080;22.214;2022-08-21T07:20:08;7.80;;;4.57;;
21802;SDS011;18591;47.080;22.214;2022-08-21T07:22:10;6.43;;;4.32;;
21802;SDS011;18591;47.080;22.214;2022-08-21T07:24:15;9.25;;;4.97;;
21802;SDS011;18591;47.080;22.214;2022-08-21T07:26:19;9.07;;;4.65;;
21802;SDS011;18591;47.080;22.214;2022-08-21T07:28:23;11.18;;;5.43;;
21802;SDS011;18591;47.080;22.214;2022-08-21T07:30:26;8.70;;;4.95;;
21802;SDS011;18591;47.080;22.214;2022-08-21T07:32:28;7.13;;;4.70;;
21802;SDS011;18591;47.080;22.214;2022-08-21T07:34:31;10.45;;;4.35;;
21802;SDS011;18591;47.080;22.214;2022-08-21T07:36:34;9.90;;;4.70;;
21802;SDS011;18591;47.080;22.214;2022-08-21T07:38:36;8.20;;;4.72;;
21802;SDS011;18591;47.080;22.214;2022-08-21T07:40:40;10.25;;;5.22;;
21802;SDS011;18591;47.080;22.214;2022-08-21T07:42:43;8.98;;;5.45;;
21802;SDS011;18591;47.080;22.214;2022-08-21T07:44:48;7.53;;;4.28;;
21802;SDS011;18591;47.080;22.214;2022-08-21T07:46:53;7.78;;;4.40;;
21802;SDS011;18591;47.080;22.214;2022-08-21T07:48:55;7.55;;;4.32;;
21802;SDS011;18591;47.080;22.214;2022-08-21T07:50:58;11.00;;;5.63;;
21802;SDS011;18591;47.080;22.214;2022-08-21T07:53:07;7.18;;;4.53;;
21802;SDS011;18591;47.080;22.214;2022-08-21T07:55:11;8.73;;;4.68;;
21802;SDS011;18591;47.080;22.214;2022-08-21T07:57:16;8.13;;;4.50;;
21802;SDS011;18591;47.080;22.214;2022-08-21T07:59:22;6.63;;;3.75;;
21802;SDS011;18591;47.080;22.214;2022-08-21T08:01:24;8.10;;;4.80;;
21802;SDS011;18591;47.080;22.214;2022-08-21T08:03:27;8.82;;;4.18;;
21802;SDS011;18591;47.080;22.214;2022-08-21T08:05:31;11.10;;;4.68;;
21802;SDS011;18591;47.080;22.214;2022-08-21T08:07:34;9.30;;;4.00;;
21802;SDS011;18591;47.080;22.214;2022-08-21T08:09:37;7.00;;;4.30;;
21802;SDS011;18591;47.080;22.214;2022-08-21T08:11:42;6.60;;;4.22;;
21802;SDS011;18591;47.080;22.214;2022-08-21T08:13:47;7.22;;;3.95;;
21802;SDS011;18591;47.080;22.214;2022-08-21T08:15:50;6.78;;;3.90;;
21802;SDS011;18591;47.080;22.214;2022-08-21T08:17:54;7.22;;;4.45;;
21802;SDS011;18591;47.080;22.214;2022-08-21T08:19:57;8.13;;;5.03;;
21802;SDS011;18591;47.080;22.214;2022-08-21T08:22:11;6.32;;;4.28;;
21802;SDS011;18591;47.080;22.214;2022-08-21T08:24:15;7.80;;;3.95;;
21802;SDS011;18591;47.080;22.214;2022-08-21T08:26:22;11.43;;;3.85;;
21802;SDS011;18591;47.080;22.214;2022-08-21T08:28:24;7.30;;;4.00;;
21802;SDS011;18591;47.080;22.214;2022-08-21T08:30:28;5.72;;;4.03;;
21802;SDS011;18591;47.080;22.214;2022-08-21T08:32:33;7.05;;;4.18;;
21802;SDS011;18591;47.080;22.214;2022-08-21T08:34:36;7.18;;;4.50;;
21802;SDS011;18591;47.080;22.214;2022-08-21T08:36:42;6.35;;;3.88;;
21802;SDS011;18591;47.080;22.214;2022-08-21T08:38:45;5.35;;;3.55;;
21802;SDS011;18591;47.080;22.214;2022-08-21T08:42:51;5.60;;;3.80;;
21802;SDS011;18591;47.080;22.214;2022-08-21T08:44:56;7.70;;;3.80;;
21802;SDS011;18591;47.080;22.214;2022-08-21T08:47:03;7.78;;;3.80;;
21802;SDS011;18591;47.080;22.214;2022-08-21T08:49:09;4.60;;;3.78;;
21802;SDS011;18591;47.080;22.214;2022-08-21T08:51:21;4.93;;;2.83;;
21802;SDS011;18591;47.080;22.214;2022-08-21T08:53:32;4.30;;;3.10;;
21802;SDS011;18591;47.080;22.214;2022-08-21T08:55:50;7.07;;;3.42;;
21802;SDS011;18591;47.080;22.214;2022-08-21T08:57:54;5.45;;;3.47;;
21802;SDS011;18591;47.080;22.214;2022-08-21T08:59:59;7.97;;;3.45;;
21802;SDS011;18591;47.080;22.214;2022-08-21T09:02:10;7.30;;;3.80;;
21802;SDS011;18591;47.080;22.214;2022-08-21T09:04:16;4.90;;;3.42;;
21802;SDS011;18591;47.080;22.214;2022-08-21T09:11:48;5.15;;;4.03;;
21802;SDS011;18591;47.080;22.214;2022-08-21T09:24:00;4.20;;;3.40;;
21802;SDS011;18591;47.080;22.214;2022-08-21T09:26:17;8.60;;;3.25;;
21802;SDS011;18591;47.080;22.214;2022-08-21T09:28:22;6.50;;;3.17;;
21802;SDS011;18591;47.080;22.214;2022-08-21T09:30:27;10.27;;;3.70;;
21802;SDS011;18591;47.080;22.214;2022-08-21T09:32:33;6.10;;;3.33;;
21802;SDS011;18591;47.080;22.214;2022-08-21T09:34:41;3.67;;;2.72;;
21802;SDS011;18591;47.080;22.214;2022-08-21T09:36:47;5.55;;;3.50;;
21802;SDS011;18591;47.080;22.214;2022-08-21T09:38:55;5.57;;;3.50;;
21802;SDS011;18591;47.080;22.214;2022-08-21T09:41:02;5.75;;;2.92;;
21802;SDS011;18591;47.080;22.214;2022-08-21T09:45:21;3.83;;;3.03;;
21802;SDS011;18591;47.080;22.214;2022-08-21T09:47:25;7.28;;;2.80;;
21802;SDS011;18591;47.080;22.214;2022-08-21T09:51:33;3.55;;;2.92;;
21802;SDS011;18591;47.080;22.214;2022-08-21T09:53:41;3.88;;;3.10;;
21802;SDS011;18591;47.080;22.214;2022-08-21T09:58:08;4.90;;;2.50;;
21802;SDS011;18591;47.080;22.214;2022-08-21T10:02:30;3.15;;;2.67;;
21802;SDS011;18591;47.080;22.214;2022-08-21T10:04:35;5.07;;;2.63;;
21802;SDS011;18591;47.080;22.214;2022-08-21T10:06:38;4.30;;;3.22;;
21802;SDS011;18591;47.080;22.214;2022-08-21T10:08:42;3.33;;;2.67;;
21802;SDS011;18591;47.080;22.214;2022-08-21T10:10:50;3.78;;;2.70;;
21802;SDS011;18591;47.080;22.214;2022-08-21T10:15:16;4.90;;;3.03;;
21802;SDS011;18591;47.080;22.214;2022-08-21T10:20:02;3.78;;;2.88;;
21802;SDS011;18591;47.080;22.214;2022-08-21T10:24:37;4.63;;;3.00;;
21802;SDS011;18591;47.080;22.214;2022-08-21T10:36:13;6.47;;;3.55;;
21802;SDS011;18591;47.080;22.214;2022-08-21T10:41:01;8.60;;;3.03;;
21802;SDS011;18591;47.080;22.214;2022-08-21T10:43:28;5.85;;;2.97;;
21802;SDS011;18591;47.080;22.214;2022-08-21T10:47:57;6.45;;;3.28;;
21802;SDS011;18591;47.080;22.214;2022-08-21T10:50:15;4.45;;;2.72;;
21802;SDS011;18591;47.080;22.214;2022-08-21T10:55:39;6.82;;;3.10;;
21802;SDS011;18591;47.080;22.214;2022-08-21T10:58:00;3.30;;;2.60;;
21802;SDS011;18591;47.080;22.214;2022-08-21T11:00:08;5.57;;;3.20;;
21802;SDS011;18591;47.080;22.214;2022-08-21T11:02:19;3.83;;;3.03;;
21802;SDS011;18591;47.080;22.214;2022-08-21T11:04:31;5.07;;;3.35;;
21802;SDS011;18591;47.080;22.214;2022-08-21T11:06:52;5.03;;;3.13;;
21802;SDS011;18591;47.080;22.214;2022-08-21T11:09:06;4.22;;;3.55;;
21802;SDS011;18591;47.080;22.214;2022-08-21T11:11:17;5.30;;;3.13;;
21802;SDS011;18591;47.080;22.214;2022-08-21T11:16:05;4.45;;;2.67;;
21802;SDS011;18591;47.080;22.214;2022-08-21T11:20:42;5.05;;;3.15;;
21802;SDS011;18591;47.080;22.214;2022-08-21T11:22:58;5.25;;;2.80;;
21802;SDS011;18591;47.080;22.214;2022-08-21T11:25:34;3.42;;;2.85;;
21802;SDS011;18591;47.080;22.214;2022-08-21T11:27:43;3.78;;;3.30;;
21802;SDS011;18591;47.080;22.214;2022-08-21T11:29:54;3.90;;;2.92;;
21802;SDS011;18591;47.080;22.214;2022-08-21T11:32:01;4.45;;;3.20;;
21802;SDS011;18591;47.080;22.214;2022-08-21T11:34:15;4.45;;;3.17;;
21802;SDS011;18591;47.080;22.214;2022-08-21T11:36:38;4.68;;;3.25;;
21802;SDS011;18591;47.080;22.214;2022-08-21T11:52:37;4.85;;;3.05;;
21802;SDS011;18591;47.080;22.214;2022-08-21T11:57:20;6.50;;;3.90;;
21802;SDS011;18591;47.080;22.214;2022-08-21T12:00:13;4.00;;;3.60;;
21802;SDS011;18591;47.080;22.214;2022-08-21T12:02:01;5.72;;;3.85;;
21802;SDS011;18591;47.080;22.214;2022-08-21T12:04:30;4.80;;;3.60;;
21802;SDS011;18591;47.080;22.214;2022-08-21T12:06:38;7.30;;;3.90;;
21802;SDS011;18591;47.080;22.214;2022-08-21T12:08:44;5.40;;;4.13;;
21802;SDS011;18591;47.080;22.214;2022-08-21T12:10:58;8.48;;;4.72;;
21802;SDS011;18591;47.080;22.214;2022-08-21T12:13:08;5.35;;;3.70;;
21802;SDS011;18591;47.080;22.214;2022-08-21T12:15:40;5.30;;;3.78;;
21802;SDS011;18591;47.080;22.214;2022-08-21T12:17:53;4.15;;;3.83;;
21802;SDS011;18591;47.080;22.214;2022-08-21T12:20:17;5.70;;;4.50;;
21802;SDS011;18591;47.080;22.214;2022-08-21T12:22:23;6.57;;;4.35;;
21802;SDS011;18591;47.080;22.214;2022-08-21T12:26:51;4.35;;;3.92;;
21802;SDS011;18591;47.080;22.214;2022-08-21T12:29:10;5.88;;;4.70;;
21802;SDS011;18591;47.080;22.214;2022-08-21T12:31:30;8.13;;;4.75;;
21802;SDS011;18591;47.080;22.214;2022-08-21T12:33:37;6.57;;;4.43;;
21802;SDS011;18591;47.080;22.214;2022-08-21T12:35:43;5.63;;;4.18;;
21802;SDS011;18591;47.080;22.214;2022-08-21T12:42:41;4.82;;;4.10;;
21802;SDS011;18591;47.080;22.214;2022-08-21T12:45:00;4.63;;;4.15;;
21802;SDS011;18591;47.080;22.214;2022-08-21T12:47:14;4.93;;;4.43;;
21802;SDS011;18591;47.080;22.214;2022-08-21T12:49:27;5.35;;;4.85;;
21802;SDS011;18591;47.080;22.214;2022-08-21T12:54:30;6.93;;;4.65;;
21802;SDS011;18591;47.080;22.214;2022-08-21T12:56:38;7.68;;;4.60;;
21802;SDS011;18591;47.080;22.214;2022-08-21T12:58:44;7.32;;;4.43;;
21802;SDS011;18591;47.080;22.214;2022-08-21T13:00:56;7.57;;;4.97;;
21802;SDS011;18591;47.080;22.214;2022-08-21T13:03:04;5.65;;;4.57;;
21802;SDS011;18591;47.080;22.214;2022-08-21T13:05:11;5.22;;;4.10;;
21802;SDS011;18591;47.080;22.214;2022-08-21T13:07:19;7.07;;;5.10;;
21802;SDS011;18591;47.080;22.214;2022-08-21T13:09:28;6.47;;;4.18;;
21802;SDS011;18591;47.080;22.214;2022-08-21T13:11:36;5.65;;;4.90;;
21802;SDS011;18591;47.080;22.214;2022-08-21T13:13:42;6.45;;;4.63;;
21802;SDS011;18591;47.080;22.214;2022-08-21T13:15:56;9.43;;;5.53;;
21802;SDS011;18591;47.080;22.214;2022-08-21T13:18:04;7.72;;;5.15;;
21802;SDS011;18591;47.080;22.214;2022-08-21T13:20:24;6.82;;;5.15;;
21802;SDS011;18591;47.080;22.214;2022-08-21T13:22:30;6.07;;;4.90;;
21802;SDS011;18591;47.080;22.214;2022-08-21T13:24:36;9.57;;;6.05;;
21802;SDS011;18591;47.080;22.214;2022-08-21T13:26:44;9.85;;;5.13;;
21802;SDS011;18591;47.080;22.214;2022-08-21T13:28:47;7.97;;;4.70;;
21802;SDS011;18591;47.080;22.214;2022-08-21T13:30:53;8.63;;;5.70;;
21802;SDS011;18591;47.080;22.214;2022-08-21T13:32:58;7.57;;;5.25;;
21802;SDS011;18591;47.080;22.214;2022-08-21T13:35:09;7.07;;;4.00;;
21802;SDS011;18591;47.080;22.214;2022-08-21T13:37:29;8.25;;;4.85;;
21802;SDS011;18591;47.080;22.214;2022-08-21T13:39:31;6.22;;;4.70;;
21802;SDS011;18591;47.080;22.214;2022-08-21T13:41:35;6.07;;;4.78;;
21802;SDS011;18591;47.080;22.214;2022-08-21T13:43:43;9.43;;;5.10;;
21802;SDS011;18591;47.080;22.214;2022-08-21T13:45:49;6.07;;;4.47;;
21802;SDS011;18591;47.080;22.214;2022-08-21T13:47:53;7.13;;;5.30;;
21802;SDS011;18591;47.080;22.214;2022-08-21T13:49:56;5.00;;;4.35;;
21802;SDS011;18591;47.080;22.214;2022-08-21T13:52:00;6.13;;;4.95;;
21802;SDS011;18591;47.080;22.214;2022-08-21T13:54:16;5.47;;;3.97;;
21802;SDS011;18591;47.080;22.214;2022-08-21T13:56:26;5.72;;;4.38;;
21802;SDS011;18591;47.080;22.214;2022-08-21T13:58:42;7.05;;;4.85;;
21802;SDS011;18591;47.080;22.214;2022-08-21T14:00:47;8.15;;;4.38;;
21802;SDS011;18591;47.080;22.214;2022-08-21T14:02:52;6.00;;;4.03;;
21802;SDS011;18591;47.080;22.214;2022-08-21T14:05:01;6.75;;;4.72;;
21802;SDS011;18591;47.080;22.214;2022-08-21T14:07:14;8.35;;;5.10;;
21802;SDS011;18591;47.080;22.214;2022-08-21T14:09:25;7.93;;;5.32;;
21802;SDS011;18591;47.080;22.214;2022-08-21T14:11:32;7.70;;;4.75;;
21802;SDS011;18591;47.080;22.214;2022-08-21T14:13:43;8.00;;;4.45;;
21802;SDS011;18591;47.080;22.214;2022-08-21T14:15:54;8.85;;;4.70;;
21802;SDS011;18591;47.080;22.214;2022-08-21T14:18:17;5.10;;;4.32;;